Terminal Aerodrome Forecast
Issued by NWS Cleveland, OH

Home | Current Version | Previous Version | Graphics & Text | Print | Product List | Glossary On
Versions: 1 2 3 4 5 6 7 8 9 10 11 12 13 14 15 16 17
925
FTUS41 KCLE 091736
TAFMFD
TAF
KMFD 091736Z 0918/1018 24012G18KT 1 1/2SM -SHSN BKN012 OVC025
      TEMPO 0919/0923 5SM -SHSN SCT012
     FM100000 26008KT 5SM -SHSN OVC025
     FM100400 20008KT P6SM OVC025
     FM101200 24008KT P6SM OVC035=

USA.gov is the U.S. government's official web portal to all federal, state and local government web resources and services.